createdAt,value
2023-06-19T00:02:27.028Z,65.80
2023-06-19T00:04:55.007Z,65.80
2023-06-19T00:07:24.260Z,65.90
2023-06-19T00:09:52.148Z,65.70
2023-06-19T00:12:20.180Z,65.90
2023-06-19T00:14:48.470Z,65.90
2023-06-19T00:17:17.732Z,65.80
2023-06-19T00:19:45.686Z,66.60
2023-06-19T00:22:13.600Z,66.00
2023-06-19T00:24:42.906Z,66.00
2023-06-19T00:27:10.808Z,65.90
2023-06-19T00:29:38.835Z,65.90
2023-06-19T00:32:07.732Z,66.00
2023-06-19T00:34:37.978Z,65.90
2023-06-19T00:37:06.574Z,66.00
2023-06-19T00:39:34.440Z,65.90
2023-06-19T00:42:03.708Z,66.10
2023-06-19T00:44:31.851Z,65.90
2023-06-19T00:47:01.242Z,66.10
2023-06-19T00:49:32.105Z,66.00
2023-06-19T00:52:00.229Z,66.00
2023-06-19T00:54:28.296Z,66.10
2023-06-19T00:56:56.166Z,66.10
2023-06-19T00:59:26.766Z,66.10
2023-06-19T01:01:54.651Z,66.00
2023-06-19T01:04:22.669Z,66.10
2023-06-19T01:06:58.819Z,66.20
2023-06-19T01:09:32.299Z,65.80
2023-06-19T01:12:14.996Z,65.80
2023-06-19T01:14:52.083Z,65.80
2023-06-19T01:17:20.121Z,65.80
2023-06-19T01:19:49.094Z,66.10
2023-06-19T01:22:27.154Z,66.10
2023-06-19T01:24:55.028Z,65.70
2023-06-19T01:27:23.154Z,66.10
2023-06-19T01:29:51.334Z,66.10
2023-06-19T01:32:24.781Z,66.10
2023-06-19T01:34:54.456Z,65.90
2023-06-19T01:37:28.337Z,66.10
2023-06-19T01:39:58.808Z,66.00
2023-06-19T01:42:27.540Z,66.10
2023-06-19T01:44:55.677Z,66.20
2023-06-19T01:47:23.707Z,66.10
2023-06-19T01:49:51.817Z,66.10
2023-06-19T01:52:19.727Z,66.10
2023-06-19T01:54:48.935Z,66.10
2023-06-19T01:57:16.902Z,66.00
2023-06-19T01:59:44.729Z,66.20
2023-06-19T02:02:12.796Z,66.10
2023-06-19T02:04:40.699Z,66.10
2023-06-19T02:07:08.607Z,66.10
2023-06-19T02:09:37.998Z,66.10
2023-06-19T02:12:08.299Z,66.10
2023-06-19T02:14:36.260Z,65.90
2023-06-19T02:17:04.118Z,66.10
2023-06-19T02:19:31.980Z,66.10
2023-06-19T02:21:59.871Z,66.20
2023-06-19T02:24:27.823Z,66.20
2023-06-19T02:26:55.722Z,66.10
2023-06-19T02:29:27.397Z,66.10
2023-06-19T02:31:55.922Z,66.00
2023-06-19T02:34:25.268Z,66.20
2023-06-19T02:36:53.399Z,66.10
2023-06-19T02:39:21.294Z,66.20
2023-06-19T02:41:50.580Z,66.20
2023-06-19T02:44:18.558Z,66.20
2023-06-19T02:46:47.728Z,66.90
2023-06-19T02:49:15.684Z,66.10
2023-06-19T02:51:44.614Z,66.20
2023-06-19T02:54:12.494Z,66.20
2023-06-19T02:56:40.665Z,66.20
2023-06-19T02:59:08.548Z,66.20
2023-06-19T03:01:36.752Z,66.10
2023-06-19T03:04:06.165Z,66.20
2023-06-19T03:06:40.918Z,66.00
2023-06-19T03:09:13.064Z,66.20
2023-06-19T03:11:41.502Z,66.10
2023-06-19T03:14:10.747Z,66.20
2023-06-19T03:16:39.235Z,66.10
2023-06-19T03:19:08.622Z,66.20
2023-06-19T03:21:37.496Z,66.10
2023-06-19T03:24:06.224Z,66.20
2023-06-19T03:26:35.320Z,66.20
2023-06-19T03:29:04.275Z,66.20
2023-06-19T03:31:45.680Z,66.10
2023-06-19T03:34:14.921Z,66.20
2023-06-19T03:36:42.956Z,66.10
2023-06-19T03:39:12.122Z,66.30
2023-06-19T03:41:40.969Z,66.20
2023-06-19T03:44:09.717Z,66.20
2023-06-19T03:46:37.720Z,66.30
2023-06-19T03:49:07.266Z,67.00
2023-06-19T03:51:36.518Z,66.20
2023-06-19T03:54:04.492Z,66.10
2023-06-19T03:56:32.362Z,66.30
2023-06-19T03:59:00.400Z,66.40
2023-06-19T04:01:28.332Z,66.30
2023-06-19T04:03:56.298Z,66.30
2023-06-19T04:06:24.393Z,66.30
2023-06-19T04:08:54.740Z,66.40
2023-06-19T04:11:24.858Z,66.20
2023-06-19T04:13:53.142Z,66.40
2023-06-19T04:16:21.060Z,66.30
2023-06-19T04:18:49.684Z,66.40
2023-06-19T04:21:17.583Z,66.30
2023-06-19T04:23:45.464Z,66.30
2023-06-19T04:26:14.702Z,66.50
2023-06-19T04:28:42.920Z,66.30
2023-06-19T04:31:10.771Z,66.60
2023-06-19T04:33:38.734Z,66.60
2023-06-19T04:36:06.970Z,66.60
2023-06-19T04:38:34.841Z,66.70
2023-06-19T04:41:02.731Z,66.60
2023-06-19T04:43:31.910Z,66.70
2023-06-19T04:45:59.961Z,66.60
2023-06-19T04:48:27.908Z,66.80
2023-06-19T04:50:56.991Z,66.80
2023-06-19T04:53:24.874Z,66.70
2023-06-19T04:55:55.481Z,66.80
2023-06-19T04:58:23.487Z,66.70
2023-06-19T05:00:53.359Z,66.60
2023-06-19T05:03:22.844Z,66.60
2023-06-19T05:05:51.011Z,66.60
2023-06-19T05:08:18.847Z,66.70
2023-06-19T05:10:46.862Z,66.70
2023-06-19T05:13:14.756Z,66.80
2023-06-19T05:15:42.686Z,66.80
2023-06-19T05:18:11.971Z,66.80
2023-06-19T05:20:39.874Z,66.70
2023-06-19T05:23:07.782Z,66.90
2023-06-19T05:25:35.725Z,66.90
2023-06-19T05:28:05.919Z,66.90
2023-06-19T05:30:34.187Z,66.90
2023-06-19T05:33:02.155Z,67.20
2023-06-19T05:35:32.846Z,66.90
2023-06-19T05:38:00.699Z,66.80
2023-06-19T05:40:29.590Z,66.90
2023-06-19T05:42:57.843Z,67.00
2023-06-19T05:45:25.727Z,67.00
2023-06-19T05:47:53.630Z,67.10
2023-06-19T05:50:21.784Z,67.10
2023-06-19T05:52:51.178Z,67.10
2023-06-19T05:55:19.187Z,67.00
2023-06-19T05:57:47.148Z,67.10
2023-06-19T06:00:16.297Z,67.20
2023-06-19T06:02:44.369Z,67.00
2023-06-19T06:05:12.301Z,67.00
2023-06-19T06:07:41.601Z,66.80
2023-06-19T06:10:12.002Z,67.00
2023-06-19T06:12:39.970Z,66.50
2023-06-19T06:15:08.905Z,66.40
2023-06-19T06:17:36.851Z,66.10
2023-06-19T06:20:10.339Z,66.00
2023-06-19T06:22:38.161Z,65.90
2023-06-19T06:25:06.665Z,65.80
2023-06-19T06:27:36.164Z,65.70
2023-06-19T06:30:04.410Z,65.50
2023-06-19T06:32:32.850Z,65.70
2023-06-19T06:35:00.811Z,65.50
2023-06-19T06:37:28.700Z,65.70
2023-06-19T06:39:56.561Z,65.60
2023-06-19T06:42:24.433Z,65.70
2023-06-19T06:44:53.774Z,65.70
2023-06-19T06:47:21.620Z,65.40
2023-06-19T06:49:49.443Z,65.50
2023-06-19T06:52:17.277Z,65.40
2023-06-19T06:54:45.335Z,65.40
2023-06-19T06:57:13.187Z,65.40
2023-06-19T06:59:41.078Z,65.50
2023-06-19T07:02:10.498Z,65.30
2023-06-19T07:04:38.391Z,65.30
2023-06-19T07:07:07.108Z,65.60
2023-06-19T07:09:35.030Z,65.80
2023-06-19T07:12:05.244Z,65.90
2023-06-19T07:14:33.238Z,65.90
2023-06-19T07:17:01.293Z,66.00
2023-06-19T07:19:30.723Z,65.90
2023-06-19T07:21:58.717Z,65.30
2023-06-19T07:24:26.637Z,65.20
2023-06-19T07:26:54.768Z,65.00
2023-06-19T07:29:23.105Z,65.00
2023-06-19T07:31:50.934Z,64.80
2023-06-19T07:34:18.745Z,64.90
2023-06-19T07:36:47.950Z,64.90
2023-06-19T07:39:15.851Z,64.80
2023-06-19T07:41:43.769Z,64.90
2023-06-19T07:44:11.594Z,64.70
2023-06-19T07:46:39.628Z,64.60
2023-06-19T07:49:07.510Z,64.70
2023-06-19T07:51:35.326Z,64.80
2023-06-19T07:54:04.789Z,65.00
2023-06-19T07:56:33.260Z,64.90
2023-06-19T07:59:01.548Z,64.90
2023-06-19T08:01:30.334Z,64.90
2023-06-19T08:03:58.183Z,64.80
2023-06-19T08:06:26.144Z,64.90
2023-06-19T08:08:54.029Z,64.90
2023-06-19T08:11:23.176Z,64.70
2023-06-19T08:13:51.116Z,64.30
2023-06-19T08:16:19.648Z,63.80
2023-06-19T08:18:48.173Z,63.70
2023-06-19T08:21:16.047Z,63.90
2023-06-19T08:23:45.032Z,64.20
2023-06-19T08:26:15.243Z,64.60
2023-06-19T08:28:45.501Z,64.80
2023-06-19T08:31:13.347Z,64.60
2023-06-19T08:33:41.205Z,64.70
2023-06-19T08:36:09.206Z,64.70
2023-06-19T08:38:37.148Z,64.40
2023-06-19T08:41:05.618Z,63.80
2023-06-19T08:43:33.597Z,63.70
2023-06-19T08:46:12.524Z,64.00
2023-06-19T08:48:40.873Z,63.90
2023-06-19T08:51:09.450Z,64.30
2023-06-19T08:53:45.792Z,64.90
2023-06-19T08:56:13.698Z,64.80
2023-06-19T08:58:41.818Z,65.20
2023-06-19T09:01:11.006Z,65.70
2023-06-19T09:03:39.010Z,65.70
2023-06-19T09:06:09.806Z,66.10
2023-06-19T09:08:39.030Z,65.90
2023-06-19T09:11:09.966Z,66.00
2023-06-19T09:13:38.786Z,65.80
2023-06-19T09:16:08.627Z,65.80
2023-06-19T09:18:46.776Z,65.50
2023-06-19T09:21:19.034Z,64.90
2023-06-19T09:23:47.996Z,64.90
2023-06-19T09:26:18.720Z,64.70
2023-06-19T09:28:47.265Z,64.40
2023-06-19T09:31:15.160Z,64.60
2023-06-19T09:33:46.761Z,64.70
2023-06-19T09:36:16.064Z,64.90
2023-06-19T09:38:43.977Z,65.20
2023-06-19T09:41:14.787Z,65.50
2023-06-19T09:43:45.507Z,65.60
2023-06-19T09:46:18.996Z,65.80
2023-06-19T09:48:50.652Z,66.00
2023-06-19T09:51:20.656Z,66.20
2023-06-19T09:53:52.712Z,66.20
2023-06-19T09:56:22.662Z,66.30
2023-06-19T09:58:53.076Z,66.30
2023-06-19T10:01:21.540Z,66.20
2023-06-19T10:03:50.828Z,66.30
2023-06-19T10:06:20.808Z,66.40
2023-06-19T10:08:48.952Z,66.50
2023-06-19T10:11:16.889Z,66.70
2023-06-19T10:13:45.225Z,66.60
2023-06-19T10:16:22.269Z,66.50
2023-06-19T10:18:52.756Z,66.20
2023-06-19T10:21:21.078Z,66.20
2023-06-19T10:23:56.828Z,66.20
2023-06-19T10:26:32.596Z,65.80
2023-06-19T10:29:00.557Z,65.20
2023-06-19T10:31:29.610Z,64.90
2023-06-19T10:33:59.127Z,64.70
2023-06-19T10:36:27.547Z,64.50
2023-06-19T10:38:56.341Z,64.80
2023-06-19T10:41:26.029Z,64.80
2023-06-19T10:43:59.121Z,64.70
2023-06-19T10:46:32.092Z,64.80
2023-06-19T10:49:03.018Z,65.30
2023-06-19T10:51:30.884Z,66.30
2023-06-19T10:54:00.013Z,65.90
2023-06-19T10:56:27.978Z,66.10
2023-06-19T10:59:00.132Z,66.10
2023-06-19T11:01:35.265Z,65.60
2023-06-19T11:04:06.634Z,65.50
2023-06-19T11:06:37.805Z,65.50
2023-06-19T11:09:06.305Z,65.70
2023-06-19T11:11:38.813Z,65.60
2023-06-19T11:14:07.204Z,65.40
2023-06-19T11:16:35.503Z,65.50
2023-06-19T11:19:05.208Z,65.10
2023-06-19T11:21:38.347Z,65.00
2023-06-19T11:24:07.518Z,64.90
2023-06-19T11:26:40.776Z,65.20
2023-06-19T11:29:19.348Z,65.20
2023-06-19T11:31:48.096Z,65.40
2023-06-19T11:34:19.098Z,66.00
2023-06-19T11:36:48.366Z,65.80
2023-06-19T11:39:18.859Z,65.90
2023-06-19T11:41:46.846Z,65.80
2023-06-19T11:44:15.026Z,66.10
2023-06-19T11:46:44.880Z,66.20
2023-06-19T11:49:13.807Z,65.90
2023-06-19T11:51:43.586Z,65.90
2023-06-19T11:54:12.669Z,65.80
2023-06-19T11:56:41.097Z,65.90
2023-06-19T11:59:09.702Z,65.70
2023-06-19T12:01:39.599Z,65.80
2023-06-19T12:04:07.924Z,65.80
2023-06-19T12:06:38.035Z,65.70
2023-06-19T12:09:07.323Z,65.90
2023-06-19T12:11:35.305Z,66.00
2023-06-19T12:14:03.258Z,66.30
2023-06-19T12:16:31.319Z,66.40
2023-06-19T12:18:59.340Z,66.60
2023-06-19T12:21:37.538Z,66.70
2023-06-19T12:24:08.351Z,66.80
2023-06-19T12:26:37.802Z,66.80
2023-06-19T12:29:07.673Z,66.80
2023-06-19T12:31:36.950Z,66.80
2023-06-19T12:34:17.005Z,66.90
2023-06-19T12:36:53.169Z,66.80
2023-06-19T12:39:22.810Z,66.80
2023-06-19T12:41:50.663Z,66.60
2023-06-19T12:44:18.688Z,66.70
2023-06-19T12:46:46.746Z,66.70
2023-06-19T12:49:14.760Z,66.60
2023-06-19T12:51:42.634Z,66.60
2023-06-19T12:54:10.507Z,66.70
2023-06-19T12:56:39.744Z,66.60
2023-06-19T12:59:07.614Z,66.50
2023-06-19T13:01:35.526Z,66.60
2023-06-19T13:04:03.616Z,66.70
2023-06-19T13:06:31.972Z,66.60
2023-06-19T13:08:59.908Z,66.60
2023-06-19T13:11:27.811Z,66.50
2023-06-19T13:13:57.221Z,66.40
2023-06-19T13:16:41.143Z,66.20
2023-06-19T13:19:13.103Z,66.30
2023-06-19T13:21:40.985Z,66.20
2023-06-19T13:24:09.081Z,66.20
2023-06-19T13:26:37.403Z,66.10
2023-06-19T13:29:06.628Z,66.10
2023-06-19T13:31:34.679Z,66.00
2023-06-19T13:34:02.554Z,66.10
2023-06-19T13:36:30.442Z,66.00
2023-06-19T13:38:58.359Z,66.00
2023-06-19T13:41:26.362Z,65.80
2023-06-19T13:43:55.018Z,65.80
2023-06-19T13:46:24.646Z,65.70
2023-06-19T13:48:53.091Z,65.40
2023-06-19T13:51:22.180Z,65.60
2023-06-19T13:53:50.302Z,65.60
2023-06-19T13:56:18.214Z,65.70
2023-06-19T13:58:46.394Z,65.80
2023-06-19T14:01:14.323Z,65.80
2023-06-19T14:03:43.952Z,65.70
2023-06-19T14:06:13.349Z,65.40
2023-06-19T14:08:41.637Z,65.40
2023-06-19T14:11:09.625Z,65.30
2023-06-19T14:13:37.506Z,65.20
2023-06-19T14:16:05.673Z,65.20
2023-06-19T14:18:34.388Z,65.20
2023-06-19T14:21:03.562Z,65.30
2023-06-19T14:23:32.179Z,65.10
2023-06-19T14:26:00.085Z,65.20
2023-06-19T14:28:28.023Z,65.20
2023-06-19T14:30:55.909Z,65.10
2023-06-19T14:33:23.818Z,65.10
2023-06-19T14:35:53.170Z,65.00
2023-06-19T14:38:22.705Z,64.90
2023-06-19T14:40:51.280Z,64.80
2023-06-19T14:43:19.190Z,65.00
2023-06-19T14:45:47.160Z,64.90
2023-06-19T14:48:15.097Z,64.90
2023-06-19T14:50:42.943Z,64.90
2023-06-19T14:53:10.831Z,64.90
2023-06-19T14:55:44.357Z,64.70
2023-06-19T14:58:12.239Z,64.70
2023-06-19T15:00:40.477Z,64.80
2023-06-19T15:03:09.254Z,64.80
2023-06-19T15:05:37.232Z,64.80
2023-06-19T15:08:06.550Z,64.80
2023-06-19T15:10:34.418Z,64.80
2023-06-19T15:13:03.587Z,64.80
2023-06-19T15:15:31.473Z,64.60
2023-06-19T15:17:59.493Z,64.80
2023-06-19T15:20:27.396Z,64.70
2023-06-19T15:22:55.271Z,64.80
2023-06-19T15:25:23.225Z,64.70
2023-06-19T15:27:51.114Z,64.80
2023-06-19T15:30:20.376Z,64.70
2023-06-19T15:32:48.218Z,64.60
2023-06-19T15:35:16.926Z,64.70
2023-06-19T15:37:44.835Z,64.60
2023-06-19T15:40:13.802Z,64.60
2023-06-19T15:42:41.693Z,64.60
2023-06-19T15:45:11.983Z,64.70
2023-06-19T15:47:41.329Z,64.50
2023-06-19T15:50:10.462Z,64.40
2023-06-19T15:52:38.422Z,64.60
2023-06-19T15:55:07.039Z,64.50
2023-06-19T15:57:35.643Z,64.40
2023-06-19T16:00:05.913Z,64.60
2023-06-19T16:02:44.399Z,64.50
2023-06-19T16:05:12.534Z,64.40
2023-06-19T16:07:40.545Z,64.50
2023-06-19T16:10:09.603Z,64.70
2023-06-19T16:12:37.601Z,64.40
2023-06-19T16:15:06.376Z,64.50
2023-06-19T16:17:34.267Z,64.40
2023-06-19T16:20:03.548Z,64.50
2023-06-19T16:22:31.411Z,64.30
2023-06-19T16:24:59.245Z,64.40
2023-06-19T16:27:27.077Z,64.50
2023-06-19T16:29:54.970Z,64.50
2023-06-19T16:32:23.179Z,64.40
2023-06-19T16:34:51.219Z,64.40
2023-06-19T16:37:20.444Z,64.40
2023-06-19T16:39:48.285Z,64.40
2023-06-19T16:42:16.505Z,64.50
2023-06-19T16:44:44.418Z,64.40
2023-06-19T16:47:12.441Z,64.50
2023-06-19T16:49:40.388Z,64.60
2023-06-19T16:52:09.164Z,64.50
2023-06-19T16:54:38.361Z,64.40
2023-06-19T16:57:06.810Z,64.40
2023-06-19T16:59:34.652Z,64.40
2023-06-19T17:02:02.525Z,64.30
2023-06-19T17:04:30.446Z,64.30
2023-06-19T17:06:59.259Z,64.30
2023-06-19T17:09:27.104Z,64.30
2023-06-19T17:11:56.314Z,64.30
2023-06-19T17:14:24.241Z,64.00
2023-06-19T17:16:52.851Z,64.20
2023-06-19T17:19:20.786Z,64.10
2023-06-19T17:21:48.659Z,64.10
2023-06-19T17:24:17.981Z,64.10
2023-06-19T17:26:46.844Z,64.00
2023-06-19T17:29:16.117Z,64.00
2023-06-19T17:31:44.002Z,63.80
2023-06-19T17:34:11.822Z,63.80
2023-06-19T17:36:40.558Z,63.80
2023-06-19T17:39:08.392Z,63.60
2023-06-19T17:41:37.585Z,63.70
2023-06-19T17:44:05.631Z,63.80
2023-06-19T17:46:34.881Z,63.90
2023-06-19T17:49:02.758Z,63.60
2023-06-19T17:51:30.990Z,63.80
2023-06-19T17:53:59.000Z,63.80
2023-06-19T17:56:26.933Z,63.80
2023-06-19T17:58:54.878Z,63.70
2023-06-19T18:01:25.663Z,63.80
2023-06-19T18:03:55.343Z,63.60
2023-06-19T18:06:24.367Z,63.70
2023-06-19T18:08:52.227Z,63.80
2023-06-19T18:11:20.166Z,63.80
2023-06-19T18:13:48.023Z,63.80
2023-06-19T18:16:15.875Z,63.90
2023-06-19T18:18:43.734Z,63.90
2023-06-19T18:21:12.948Z,63.90
2023-06-19T18:23:40.889Z,63.80
2023-06-19T18:26:08.904Z,63.90
2023-06-19T18:28:36.725Z,64.00
2023-06-19T18:31:04.579Z,64.10
2023-06-19T18:33:32.464Z,64.20
2023-06-19T18:36:01.886Z,64.20
2023-06-19T18:38:31.089Z,64.30
2023-06-19T18:40:58.983Z,64.20
2023-06-19T18:43:26.916Z,64.40
2023-06-19T18:45:54.761Z,64.40
2023-06-19T18:48:23.217Z,64.50
2023-06-19T18:50:51.326Z,64.60
2023-06-19T18:53:19.285Z,64.60
2023-06-19T18:55:48.454Z,64.60
2023-06-19T18:58:16.554Z,64.40
2023-06-19T19:00:44.393Z,64.60
2023-06-19T19:03:12.670Z,64.60
2023-06-19T19:05:40.744Z,64.70
2023-06-19T19:08:08.562Z,64.70
2023-06-19T19:10:36.404Z,64.70
2023-06-19T19:13:07.981Z,64.70
2023-06-19T19:15:35.877Z,64.50
2023-06-19T19:18:04.283Z,64.70
2023-06-19T19:20:32.207Z,64.80
2023-06-19T19:23:00.083Z,64.80
2023-06-19T19:25:28.100Z,64.80
2023-06-19T19:27:55.955Z,64.90
2023-06-19T19:30:25.424Z,64.80
2023-06-19T19:32:53.756Z,64.70
2023-06-19T19:35:21.767Z,64.90
2023-06-19T19:37:49.601Z,65.00
2023-06-19T19:40:17.488Z,65.00
2023-06-19T19:42:45.346Z,65.00
2023-06-19T19:45:13.213Z,65.10
2023-06-19T19:47:42.430Z,65.00
2023-06-19T19:50:12.455Z,64.90
2023-06-19T19:52:40.289Z,64.90
2023-06-19T19:55:08.990Z,64.90
2023-06-19T19:57:36.886Z,64.90
2023-06-19T20:00:05.429Z,65.00
2023-06-19T20:02:34.521Z,65.10
2023-06-19T20:05:03.902Z,65.10
2023-06-19T20:07:31.773Z,65.10
2023-06-19T20:09:59.679Z,65.20
2023-06-19T20:12:27.521Z,65.30
2023-06-19T20:14:55.534Z,65.40
2023-06-19T20:17:24.132Z,65.40
2023-06-19T20:19:52.108Z,65.60
2023-06-19T20:22:21.296Z,65.50
2023-06-19T20:24:49.109Z,65.40
2023-06-19T20:27:17.865Z,65.70
2023-06-19T20:29:45.722Z,65.80
2023-06-19T20:32:13.546Z,65.80
2023-06-19T20:34:41.376Z,65.90
2023-06-19T20:37:09.267Z,65.90
2023-06-19T20:39:38.405Z,66.00
2023-06-19T20:42:06.645Z,65.90
2023-06-19T20:44:36.126Z,66.00
2023-06-19T20:47:04.243Z,66.10
2023-06-19T20:49:32.197Z,66.20
2023-06-19T20:52:00.027Z,66.10
2023-06-19T20:54:27.868Z,66.20
2023-06-19T20:56:57.072Z,66.20
2023-06-19T20:59:24.906Z,66.20
2023-06-19T21:02:00.676Z,66.30
2023-06-19T21:04:28.853Z,66.30
2023-06-19T21:06:57.629Z,66.30
2023-06-19T21:09:26.650Z,66.30
2023-06-19T21:11:54.735Z,66.40
2023-06-19T21:14:24.266Z,66.40
2023-06-19T21:16:52.180Z,66.30
2023-06-19T21:19:20.053Z,66.40
2023-06-19T21:21:47.922Z,66.40
2023-06-19T21:24:15.836Z,66.60
2023-06-19T21:26:44.063Z,66.50
2023-06-19T21:29:11.910Z,66.50
2023-06-19T21:31:41.352Z,66.60
2023-06-19T21:34:09.259Z,66.50
2023-06-19T21:36:37.151Z,66.60
2023-06-19T21:39:05.062Z,66.60
2023-06-19T21:41:33.193Z,66.60
2023-06-19T21:44:01.079Z,66.60
2023-06-19T21:46:28.974Z,66.50
2023-06-19T21:48:58.322Z,66.50
2023-06-19T21:51:26.221Z,67.20
2023-06-19T21:53:54.086Z,66.70
2023-06-19T21:56:22.000Z,66.60
2023-06-19T21:58:49.854Z,66.60
2023-06-19T22:01:17.723Z,66.70
2023-06-19T22:03:45.719Z,66.70
2023-06-19T22:06:15.300Z,66.70
2023-06-19T22:08:43.534Z,66.60
2023-06-19T22:11:11.686Z,66.70
2023-06-19T22:13:40.443Z,66.80
2023-06-19T22:16:08.982Z,66.70
2023-06-19T22:18:37.201Z,66.80
2023-06-19T22:21:05.131Z,66.80
2023-06-19T22:23:34.369Z,66.80
2023-06-19T22:26:02.197Z,66.70
2023-06-19T22:28:30.051Z,66.90
2023-06-19T22:30:57.972Z,66.90
2023-06-19T22:33:25.888Z,66.90
2023-06-19T22:35:53.854Z,66.90
2023-06-19T22:38:22.469Z,66.90
2023-06-19T22:40:51.660Z,67.00
2023-06-19T22:43:19.561Z,66.90
2023-06-19T22:45:48.250Z,67.00
2023-06-19T22:48:19.056Z,67.00
2023-06-19T22:50:47.218Z,67.00
2023-06-19T22:53:15.282Z,67.20
2023-06-19T22:55:43.402Z,67.00
2023-06-19T22:58:12.630Z,67.10
2023-06-19T23:00:40.428Z,66.90
2023-06-19T23:03:08.380Z,67.10
2023-06-19T23:05:36.393Z,67.10
2023-06-19T23:08:04.554Z,67.20
2023-06-19T23:10:32.436Z,67.10
2023-06-19T23:13:00.330Z,67.10
2023-06-19T23:15:29.634Z,67.00
2023-06-19T23:17:57.530Z,66.90
2023-06-19T23:20:25.454Z,67.80
2023-06-19T23:22:53.351Z,67.10
2023-06-19T23:25:21.775Z,67.10
2023-06-19T23:27:49.659Z,67.10
2023-06-19T23:30:17.672Z,67.10
2023-06-19T23:32:46.889Z,67.20
2023-06-19T23:35:14.827Z,67.00
2023-06-19T23:37:42.686Z,67.20
2023-06-19T23:40:11.680Z,67.20
2023-06-19T23:42:39.530Z,67.10
2023-06-19T23:45:08.293Z,67.20
2023-06-19T23:47:36.149Z,67.20
2023-06-19T23:50:05.943Z,67.30
2023-06-19T23:52:42.816Z,67.10
2023-06-19T23:55:12.529Z,67.30
2023-06-19T23:57:40.806Z,67.30
